sensor_id;sensor_type;location;lat;lon;timestamp;P1;durP1;ratioP1;P2;durP2;ratioP2
38425;SDS011;24210;51.460;6.148;2023-04-29T00:00:54;61.83;;;33.03;;
38425;SDS011;24210;51.460;6.148;2023-04-29T00:03:19;57.33;;;31.00;;
38425;SDS011;24210;51.460;6.148;2023-04-29T00:05:44;55.20;;;31.67;;
38425;SDS011;24210;51.460;6.148;2023-04-29T00:08:10;50.20;;;31.13;;
38425;SDS011;24210;51.460;6.148;2023-04-29T00:10:35;46.77;;;25.03;;
38425;SDS011;24210;51.460;6.148;2023-04-29T00:13:01;69.18;;;41.42;;
38425;SDS011;24210;51.460;6.148;2023-04-29T00:15:27;66.33;;;35.57;;
38425;SDS011;24210;51.460;6.148;2023-04-29T00:17:52;74.53;;;38.53;;
38425;SDS011;24210;51.460;6.148;2023-04-29T00:20:17;59.97;;;33.57;;
38425;SDS011;24210;51.460;6.148;2023-04-29T00:22:42;60.37;;;36.37;;
38425;SDS011;24210;51.460;6.148;2023-04-29T00:25:08;53.77;;;31.73;;
38425;SDS011;24210;51.460;6.148;2023-04-29T00:27:33;55.47;;;31.33;;
38425;SDS011;24210;51.460;6.148;2023-04-29T00:29:58;44.37;;;24.33;;
38425;SDS011;24210;51.460;6.148;2023-04-29T00:32:23;57.67;;;34.23;;
38425;SDS011;24210;51.460;6.148;2023-04-29T00:34:49;54.90;;;30.97;;
38425;SDS011;24210;51.460;6.148;2023-04-29T00:37:14;58.83;;;34.17;;
38425;SDS011;24210;51.460;6.148;2023-04-29T00:39:40;54.47;;;32.50;;
38425;SDS011;24210;51.460;6.148;2023-04-29T00:42:05;58.40;;;30.97;;
38425;SDS011;24210;51.460;6.148;2023-04-29T00:44:31;55.03;;;30.03;;
38425;SDS011;24210;51.460;6.148;2023-04-29T00:46:56;48.07;;;28.87;;
38425;SDS011;24210;51.460;6.148;2023-04-29T00:49:21;54.00;;;30.70;;
38425;SDS011;24210;51.460;6.148;2023-04-29T00:51:47;48.97;;;27.97;;
38425;SDS011;24210;51.460;6.148;2023-04-29T00:54:12;49.70;;;27.57;;
38425;SDS011;24210;51.460;6.148;2023-04-29T00:56:38;45.53;;;27.77;;
38425;SDS011;24210;51.460;6.148;2023-04-29T00:59:05;36.35;;;19.85;;
38425;SDS011;24210;51.460;6.148;2023-04-29T01:01:33;43.97;;;25.58;;
38425;SDS011;24210;51.460;6.148;2023-04-29T01:03:59;45.35;;;27.52;;
38425;SDS011;24210;51.460;6.148;2023-04-29T01:06:26;43.93;;;26.10;;
38425;SDS011;24210;51.460;6.148;2023-04-29T01:09:17;41.55;;;25.17;;
38425;SDS011;24210;51.460;6.148;2023-04-29T01:11:54;42.38;;;25.35;;
38425;SDS011;24210;51.460;6.148;2023-04-29T01:14:25;42.60;;;26.23;;
38425;SDS011;24210;51.460;6.148;2023-04-29T01:16:51;40.47;;;24.63;;
38425;SDS011;24210;51.460;6.148;2023-04-29T01:20:06;42.65;;;25.90;;
38425;SDS011;24210;51.460;6.148;2023-04-29T01:22:06;48.10;;;29.33;;
38425;SDS011;24210;51.460;6.148;2023-04-29T01:24:31;44.80;;;27.27;;
38425;SDS011;24210;51.460;6.148;2023-04-29T01:26:58;46.83;;;30.67;;
38425;SDS011;24210;51.460;6.148;2023-04-29T01:32:08;42.28;;;26.35;;
38425;SDS011;24210;51.460;6.148;2023-04-29T01:34:50;44.08;;;27.05;;
38425;SDS011;24210;51.460;6.148;2023-04-29T01:37:26;45.65;;;27.08;;
38425;SDS011;24210;51.460;6.148;2023-04-29T01:42:43;50.53;;;30.30;;
38425;SDS011;24210;51.460;6.148;2023-04-29T01:45:10;41.95;;;25.38;;
38425;SDS011;24210;51.460;6.148;2023-04-29T01:47:36;49.93;;;29.30;;
38425;SDS011;24210;51.460;6.148;2023-04-29T01:50:01;47.95;;;29.75;;
38425;SDS011;24210;51.460;6.148;2023-04-29T01:52:27;48.70;;;29.85;;
38425;SDS011;24210;51.460;6.148;2023-04-29T01:54:53;38.70;;;23.97;;
38425;SDS011;24210;51.460;6.148;2023-04-29T01:57:18;38.23;;;24.73;;
38425;SDS011;24210;51.460;6.148;2023-04-29T01:59:43;45.00;;;29.17;;
38425;SDS011;24210;51.460;6.148;2023-04-29T02:02:08;43.13;;;29.63;;
38425;SDS011;24210;51.460;6.148;2023-04-29T02:04:34;41.90;;;29.23;;
38425;SDS011;24210;51.460;6.148;2023-04-29T02:06:59;41.97;;;28.80;;
38425;SDS011;24210;51.460;6.148;2023-04-29T02:09:25;47.92;;;29.13;;
38425;SDS011;24210;51.460;6.148;2023-04-29T02:11:51;42.27;;;27.60;;
38425;SDS011;24210;51.460;6.148;2023-04-29T02:14:16;38.43;;;26.57;;
38425;SDS011;24210;51.460;6.148;2023-04-29T02:16:44;44.67;;;29.33;;
38425;SDS011;24210;51.460;6.148;2023-04-29T02:19:10;39.22;;;25.73;;
38425;SDS011;24210;51.460;6.148;2023-04-29T02:21:35;37.73;;;27.53;;
38425;SDS011;24210;51.460;6.148;2023-04-29T02:24:00;40.40;;;27.57;;
38425;SDS011;24210;51.460;6.148;2023-04-29T02:26:26;38.47;;;24.00;;
38425;SDS011;24210;51.460;6.148;2023-04-29T02:28:51;36.80;;;25.37;;
38425;SDS011;24210;51.460;6.148;2023-04-29T02:31:17;36.80;;;25.03;;
38425;SDS011;24210;51.460;6.148;2023-04-29T02:33:42;33.40;;;19.37;;
38425;SDS011;24210;51.460;6.148;2023-04-29T02:36:07;44.17;;;27.17;;
38425;SDS011;24210;51.460;6.148;2023-04-29T02:38:33;37.63;;;25.67;;
38425;SDS011;24210;51.460;6.148;2023-04-29T02:40:58;31.57;;;23.57;;
38425;SDS011;24210;51.460;6.148;2023-04-29T02:43:23;37.73;;;24.80;;
38425;SDS011;24210;51.460;6.148;2023-04-29T02:45:48;36.93;;;24.53;;
38425;SDS011;24210;51.460;6.148;2023-04-29T02:48:14;39.57;;;23.83;;
38425;SDS011;24210;51.460;6.148;2023-04-29T02:50:39;35.73;;;24.40;;
38425;SDS011;24210;51.460;6.148;2023-04-29T02:53:05;37.90;;;24.33;;
38425;SDS011;24210;51.460;6.148;2023-04-29T02:55:30;36.97;;;25.37;;
38425;SDS011;24210;51.460;6.148;2023-04-29T02:57:55;35.47;;;21.97;;
38425;SDS011;24210;51.460;6.148;2023-04-29T03:00:20;36.00;;;22.70;;
38425;SDS011;24210;51.460;6.148;2023-04-29T03:02:46;36.83;;;23.10;;
38425;SDS011;24210;51.460;6.148;2023-04-29T03:05:11;38.33;;;23.53;;
38425;SDS011;24210;51.460;6.148;2023-04-29T03:07:36;37.07;;;23.77;;
38425;SDS011;24210;51.460;6.148;2023-04-29T03:10:02;34.63;;;21.83;;
38425;SDS011;24210;51.460;6.148;2023-04-29T03:12:27;32.47;;;20.53;;
38425;SDS011;24210;51.460;6.148;2023-04-29T03:14:52;36.17;;;23.87;;
38425;SDS011;24210;51.460;6.148;2023-04-29T03:17:17;34.13;;;22.30;;
38425;SDS011;24210;51.460;6.148;2023-04-29T03:19:43;32.13;;;21.83;;
38425;SDS011;24210;51.460;6.148;2023-04-29T03:22:08;30.17;;;20.80;;
38425;SDS011;24210;51.460;6.148;2023-04-29T03:24:35;30.40;;;21.80;;
38425;SDS011;24210;51.460;6.148;2023-04-29T03:27:00;32.20;;;21.67;;
38425;SDS011;24210;51.460;6.148;2023-04-29T03:29:26;36.00;;;22.97;;
38425;SDS011;24210;51.460;6.148;2023-04-29T03:31:52;35.37;;;23.57;;
38425;SDS011;24210;51.460;6.148;2023-04-29T03:34:17;36.03;;;23.07;;
38425;SDS011;24210;51.460;6.148;2023-04-29T03:36:42;32.70;;;22.23;;
38425;SDS011;24210;51.460;6.148;2023-04-29T03:39:07;31.87;;;23.67;;
38425;SDS011;24210;51.460;6.148;2023-04-29T03:41:33;33.17;;;21.70;;
38425;SDS011;24210;51.460;6.148;2023-04-29T03:43:58;31.60;;;22.63;;
38425;SDS011;24210;51.460;6.148;2023-04-29T03:46:27;24.23;;;17.85;;
38425;SDS011;24210;51.460;6.148;2023-04-29T03:48:52;29.15;;;20.65;;
38425;SDS011;24210;51.460;6.148;2023-04-29T03:51:20;29.85;;;20.73;;
38425;SDS011;24210;51.460;6.148;2023-04-29T03:53:45;26.33;;;19.53;;
38425;SDS011;24210;51.460;6.148;2023-04-29T03:56:11;33.17;;;21.63;;
38425;SDS011;24210;51.460;6.148;2023-04-29T03:58:36;29.13;;;21.07;;
38425;SDS011;24210;51.460;6.148;2023-04-29T04:01:01;28.47;;;19.87;;
38425;SDS011;24210;51.460;6.148;2023-04-29T04:03:27;31.77;;;20.97;;
38425;SDS011;24210;51.460;6.148;2023-04-29T04:05:52;26.10;;;19.10;;
38425;SDS011;24210;51.460;6.148;2023-04-29T04:08:17;25.17;;;19.17;;
38425;SDS011;24210;51.460;6.148;2023-04-29T04:10:42;27.77;;;19.13;;
38425;SDS011;24210;51.460;6.148;2023-04-29T04:13:08;29.00;;;18.73;;
38425;SDS011;24210;51.460;6.148;2023-04-29T04:15:33;27.10;;;18.90;;
38425;SDS011;24210;51.460;6.148;2023-04-29T04:17:58;27.07;;;19.50;;
38425;SDS011;24210;51.460;6.148;2023-04-29T04:20:24;24.20;;;17.70;;
38425;SDS011;24210;51.460;6.148;2023-04-29T04:22:49;25.27;;;17.67;;
38425;SDS011;24210;51.460;6.148;2023-04-29T04:25:14;27.80;;;19.40;;
38425;SDS011;24210;51.460;6.148;2023-04-29T04:27:39;27.93;;;19.00;;
38425;SDS011;24210;51.460;6.148;2023-04-29T04:30:05;26.97;;;17.27;;
38425;SDS011;24210;51.460;6.148;2023-04-29T04:32:30;20.70;;;14.27;;
38425;SDS011;24210;51.460;6.148;2023-04-29T04:34:55;25.13;;;15.83;;
38425;SDS011;24210;51.460;6.148;2023-04-29T04:37:21;27.53;;;17.33;;
38425;SDS011;24210;51.460;6.148;2023-04-29T04:39:46;25.53;;;16.97;;
38425;SDS011;24210;51.460;6.148;2023-04-29T04:42:11;24.43;;;16.27;;
38425;SDS011;24210;51.460;6.148;2023-04-29T04:44:37;23.30;;;14.80;;
38425;SDS011;24210;51.460;6.148;2023-04-29T04:47:02;26.73;;;18.57;;
38425;SDS011;24210;51.460;6.148;2023-04-29T04:49:28;28.77;;;17.47;;
38425;SDS011;24210;51.460;6.148;2023-04-29T04:51:53;22.30;;;16.47;;
38425;SDS011;24210;51.460;6.148;2023-04-29T04:54:18;22.60;;;13.90;;
38425;SDS011;24210;51.460;6.148;2023-04-29T04:56:43;26.33;;;16.00;;
38425;SDS011;24210;51.460;6.148;2023-04-29T04:59:09;19.83;;;14.47;;
38425;SDS011;24210;51.460;6.148;2023-04-29T05:01:34;21.37;;;14.63;;
38425;SDS011;24210;51.460;6.148;2023-04-29T05:03:59;23.07;;;15.47;;
38425;SDS011;24210;51.460;6.148;2023-04-29T05:06:26;21.00;;;15.93;;
38425;SDS011;24210;51.460;6.148;2023-04-29T05:08:51;22.27;;;15.77;;
38425;SDS011;24210;51.460;6.148;2023-04-29T05:11:17;24.70;;;15.23;;
38425;SDS011;24210;51.460;6.148;2023-04-29T05:13:42;28.23;;;14.80;;
38425;SDS011;24210;51.460;6.148;2023-04-29T05:16:08;22.63;;;14.67;;
38425;SDS011;24210;51.460;6.148;2023-04-29T05:18:33;24.27;;;15.57;;
38425;SDS011;24210;51.460;6.148;2023-04-29T05:20:58;19.97;;;14.50;;
38425;SDS011;24210;51.460;6.148;2023-04-29T05:23:24;24.77;;;16.23;;
38425;SDS011;24210;51.460;6.148;2023-04-29T05:25:49;24.93;;;15.97;;
38425;SDS011;24210;51.460;6.148;2023-04-29T05:28:14;25.53;;;16.73;;
38425;SDS011;24210;51.460;6.148;2023-04-29T05:30:39;26.03;;;16.17;;
38425;SDS011;24210;51.460;6.148;2023-04-29T05:33:05;21.37;;;15.37;;
38425;SDS011;24210;51.460;6.148;2023-04-29T05:35:30;22.13;;;15.90;;
38425;SDS011;24210;51.460;6.148;2023-04-29T05:37:56;24.43;;;16.17;;
38425;SDS011;24210;51.460;6.148;2023-04-29T05:40:21;29.73;;;16.30;;
38425;SDS011;24210;51.460;6.148;2023-04-29T05:42:47;23.90;;;16.47;;
38425;SDS011;24210;51.460;6.148;2023-04-29T05:45:13;22.60;;;16.65;;
38425;SDS011;24210;51.460;6.148;2023-04-29T05:47:38;28.23;;;16.43;;
38425;SDS011;24210;51.460;6.148;2023-04-29T05:50:03;23.60;;;15.17;;
38425;SDS011;24210;51.460;6.148;2023-04-29T05:52:29;23.37;;;16.10;;
38425;SDS011;24210;51.460;6.148;2023-04-29T05:54:54;28.37;;;17.67;;
38425;SDS011;24210;51.460;6.148;2023-04-29T05:57:19;26.07;;;18.50;;
38425;SDS011;24210;51.460;6.148;2023-04-29T05:59:45;24.50;;;16.23;;
38425;SDS011;24210;51.460;6.148;2023-04-29T06:02:10;24.70;;;17.10;;
38425;SDS011;24210;51.460;6.148;2023-04-29T06:04:36;23.37;;;15.63;;
38425;SDS011;24210;51.460;6.148;2023-04-29T06:07:01;28.43;;;19.03;;
38425;SDS011;24210;51.460;6.148;2023-04-29T06:09:28;25.35;;;16.65;;
38425;SDS011;24210;51.460;6.148;2023-04-29T06:11:54;26.33;;;18.27;;
38425;SDS011;24210;51.460;6.148;2023-04-29T06:14:20;28.87;;;17.27;;
38425;SDS011;24210;51.460;6.148;2023-04-29T06:16:45;34.23;;;21.17;;
38425;SDS011;24210;51.460;6.148;2023-04-29T06:19:10;26.13;;;17.50;;
38425;SDS011;24210;51.460;6.148;2023-04-29T06:21:35;28.03;;;17.63;;
38425;SDS011;24210;51.460;6.148;2023-04-29T06:24:01;28.27;;;18.23;;
38425;SDS011;24210;51.460;6.148;2023-04-29T06:26:26;31.40;;;19.30;;
38425;SDS011;24210;51.460;6.148;2023-04-29T06:28:51;29.13;;;18.90;;
38425;SDS011;24210;51.460;6.148;2023-04-29T06:31:18;32.97;;;19.02;;
38425;SDS011;24210;51.460;6.148;2023-04-29T06:33:43;26.30;;;17.87;;
38425;SDS011;24210;51.460;6.148;2023-04-29T06:36:08;26.93;;;17.67;;
38425;SDS011;24210;51.460;6.148;2023-04-29T06:38:33;27.37;;;18.57;;
38425;SDS011;24210;51.460;6.148;2023-04-29T06:40:59;29.20;;;18.17;;
38425;SDS011;24210;51.460;6.148;2023-04-29T06:43:31;32.22;;;20.17;;
38425;SDS011;24210;51.460;6.148;2023-04-29T06:45:56;24.00;;;15.48;;
38425;SDS011;24210;51.460;6.148;2023-04-29T06:48:22;21.80;;;16.27;;
38425;SDS011;24210;51.460;6.148;2023-04-29T06:50:48;28.83;;;17.63;;
38425;SDS011;24210;51.460;6.148;2023-04-29T06:53:13;31.30;;;17.80;;
38425;SDS011;24210;51.460;6.148;2023-04-29T06:55:38;28.50;;;17.57;;
38425;SDS011;24210;51.460;6.148;2023-04-29T06:58:04;22.87;;;17.03;;
38425;SDS011;24210;51.460;6.148;2023-04-29T07:00:29;26.80;;;17.20;;
38425;SDS011;24210;51.460;6.148;2023-04-29T07:02:54;26.63;;;18.17;;
38425;SDS011;24210;51.460;6.148;2023-04-29T07:05:19;24.50;;;16.30;;
38425;SDS011;24210;51.460;6.148;2023-04-29T07:07:45;32.97;;;17.70;;
38425;SDS011;24210;51.460;6.148;2023-04-29T07:10:10;25.40;;;17.00;;
38425;SDS011;24210;51.460;6.148;2023-04-29T07:12:35;23.70;;;16.80;;
38425;SDS011;24210;51.460;6.148;2023-04-29T07:15:01;22.33;;;16.20;;
38425;SDS011;24210;51.460;6.148;2023-04-29T07:17:28;24.00;;;15.67;;
38425;SDS011;24210;51.460;6.148;2023-04-29T07:19:53;25.63;;;16.83;;
38425;SDS011;24210;51.460;6.148;2023-04-29T07:22:19;22.97;;;17.27;;
38425;SDS011;24210;51.460;6.148;2023-04-29T07:24:44;22.27;;;15.40;;
38425;SDS011;24210;51.460;6.148;2023-04-29T07:27:09;26.97;;;17.10;;
38425;SDS011;24210;51.460;6.148;2023-04-29T07:29:34;24.10;;;14.80;;
38425;SDS011;24210;51.460;6.148;2023-04-29T07:32:00;28.83;;;16.17;;
38425;SDS011;24210;51.460;6.148;2023-04-29T07:34:25;19.77;;;12.73;;
38425;SDS011;24210;51.460;6.148;2023-04-29T07:36:50;22.20;;;15.73;;
38425;SDS011;24210;51.460;6.148;2023-04-29T07:39:15;22.43;;;14.60;;
38425;SDS011;24210;51.460;6.148;2023-04-29T07:41:41;19.77;;;14.07;;
38425;SDS011;24210;51.460;6.148;2023-04-29T07:44:06;20.90;;;13.97;;
38425;SDS011;24210;51.460;6.148;2023-04-29T07:46:31;19.57;;;14.60;;
38425;SDS011;24210;51.460;6.148;2023-04-29T07:48:57;25.33;;;14.97;;
38425;SDS011;24210;51.460;6.148;2023-04-29T07:51:22;19.33;;;14.07;;
38425;SDS011;24210;51.460;6.148;2023-04-29T07:53:47;22.03;;;13.10;;
38425;SDS011;24210;51.460;6.148;2023-04-29T07:56:12;17.80;;;13.63;;
38425;SDS011;24210;51.460;6.148;2023-04-29T07:58:38;19.60;;;14.40;;
38425;SDS011;24210;51.460;6.148;2023-04-29T08:01:07;18.40;;;13.87;;
38425;SDS011;24210;51.460;6.148;2023-04-29T08:03:33;17.23;;;12.35;;
38425;SDS011;24210;51.460;6.148;2023-04-29T08:06:01;20.17;;;13.53;;
38425;SDS011;24210;51.460;6.148;2023-04-29T08:08:27;19.00;;;13.80;;
38425;SDS011;24210;51.460;6.148;2023-04-29T08:10:52;21.13;;;14.53;;
38425;SDS011;24210;51.460;6.148;2023-04-29T08:13:18;22.57;;;14.77;;
38425;SDS011;24210;51.460;6.148;2023-04-29T08:15:43;18.57;;;14.00;;
38425;SDS011;24210;51.460;6.148;2023-04-29T08:18:08;20.43;;;14.10;;
38425;SDS011;24210;51.460;6.148;2023-04-29T08:20:33;20.00;;;14.70;;
38425;SDS011;24210;51.460;6.148;2023-04-29T08:22:59;21.87;;;15.70;;
38425;SDS011;24210;51.460;6.148;2023-04-29T08:25:27;20.50;;;14.00;;
38425;SDS011;24210;51.460;6.148;2023-04-29T08:27:53;20.73;;;14.52;;
38425;SDS011;24210;51.460;6.148;2023-04-29T08:30:18;20.30;;;14.03;;
38425;SDS011;24210;51.460;6.148;2023-04-29T08:32:43;27.10;;;15.07;;
38425;SDS011;24210;51.460;6.148;2023-04-29T08:35:09;19.90;;;15.00;;
38425;SDS011;24210;51.460;6.148;2023-04-29T08:37:34;21.13;;;13.83;;
38425;SDS011;24210;51.460;6.148;2023-04-29T08:39:59;22.90;;;15.23;;
38425;SDS011;24210;51.460;6.148;2023-04-29T08:42:32;21.67;;;15.23;;
38425;SDS011;24210;51.460;6.148;2023-04-29T08:44:57;20.92;;;15.55;;
38425;SDS011;24210;51.460;6.148;2023-04-29T08:47:24;23.80;;;15.30;;
38425;SDS011;24210;51.460;6.148;2023-04-29T08:49:49;20.57;;;15.00;;
38425;SDS011;24210;51.460;6.148;2023-04-29T08:52:14;22.13;;;15.13;;
38425;SDS011;24210;51.460;6.148;2023-04-29T08:54:40;24.73;;;15.90;;
38425;SDS011;24210;51.460;6.148;2023-04-29T08:57:05;22.87;;;15.63;;
38425;SDS011;24210;51.460;6.148;2023-04-29T08:59:31;19.77;;;14.57;;
38425;SDS011;24210;51.460;6.148;2023-04-29T09:01:56;21.77;;;14.97;;
38425;SDS011;24210;51.460;6.148;2023-04-29T09:04:29;23.00;;;15.57;;
38425;SDS011;24210;51.460;6.148;2023-04-29T09:06:56;22.63;;;15.90;;
38425;SDS011;24210;51.460;6.148;2023-04-29T09:09:23;25.13;;;15.70;;
38425;SDS011;24210;51.460;6.148;2023-04-29T09:11:48;18.02;;;14.25;;
38425;SDS011;24210;51.460;6.148;2023-04-29T09:14:13;21.67;;;13.40;;
38425;SDS011;24210;51.460;6.148;2023-04-29T09:16:39;21.43;;;13.90;;
38425;SDS011;24210;51.460;6.148;2023-04-29T09:19:04;20.30;;;14.50;;
38425;SDS011;24210;51.460;6.148;2023-04-29T09:21:30;20.83;;;14.00;;
38425;SDS011;24210;51.460;6.148;2023-04-29T09:23:58;18.42;;;14.15;;
38425;SDS011;24210;51.460;6.148;2023-04-29T09:26:24;20.98;;;16.10;;
38425;SDS011;24210;51.460;6.148;2023-04-29T09:29:04;22.33;;;15.63;;
38425;SDS011;24210;51.460;6.148;2023-04-29T09:31:30;19.10;;;14.48;;
38425;SDS011;24210;51.460;6.148;2023-04-29T09:33:55;25.60;;;15.63;;
38425;SDS011;24210;51.460;6.148;2023-04-29T09:39:09;20.73;;;14.88;;
38425;SDS011;24210;51.460;6.148;2023-04-29T09:41:39;17.67;;;13.73;;
38425;SDS011;24210;51.460;6.148;2023-04-29T09:44:05;20.23;;;14.23;;
38425;SDS011;24210;51.460;6.148;2023-04-29T09:46:32;17.80;;;14.43;;
38425;SDS011;24210;51.460;6.148;2023-04-29T09:48:57;21.33;;;15.75;;
38425;SDS011;24210;51.460;6.148;2023-04-29T09:51:22;20.83;;;14.57;;
38425;SDS011;24210;51.460;6.148;2023-04-29T09:53:48;18.90;;;15.00;;
38425;SDS011;24210;51.460;6.148;2023-04-29T09:56:14;21.98;;;15.02;;
38425;SDS011;24210;51.460;6.148;2023-04-29T09:58:39;19.27;;;14.20;;
38425;SDS011;24210;51.460;6.148;2023-04-29T10:01:05;19.57;;;14.00;;
38425;SDS011;24210;51.460;6.148;2023-04-29T10:03:31;19.35;;;14.10;;
38425;SDS011;24210;51.460;6.148;2023-04-29T10:05:58;24.35;;;15.57;;
38425;SDS011;24210;51.460;6.148;2023-04-29T10:08:24;22.52;;;15.52;;
38425;SDS011;24210;51.460;6.148;2023-04-29T10:10:49;22.77;;;15.23;;
38425;SDS011;24210;51.460;6.148;2023-04-29T10:13:21;23.85;;;16.52;;
38425;SDS011;24210;51.460;6.148;2023-04-29T10:15:48;19.97;;;14.93;;
38425;SDS011;24210;51.460;6.148;2023-04-29T10:18:20;22.40;;;14.00;;
38425;SDS011;24210;51.460;6.148;2023-04-29T10:20:46;27.77;;;14.98;;
38425;SDS011;24210;51.460;6.148;2023-04-29T10:23:12;24.02;;;15.55;;
38425;SDS011;24210;51.460;6.148;2023-04-29T10:25:38;17.30;;;12.55;;
38425;SDS011;24210;51.460;6.148;2023-04-29T10:28:04;21.40;;;14.43;;
38425;SDS011;24210;51.460;6.148;2023-04-29T10:30:30;20.17;;;14.18;;
38425;SDS011;24210;51.460;6.148;2023-04-29T10:32:55;14.50;;;12.87;;
38425;SDS011;24210;51.460;6.148;2023-04-29T10:35:24;18.77;;;13.57;;
38425;SDS011;24210;51.460;6.148;2023-04-29T10:37:49;20.87;;;13.47;;
38425;SDS011;24210;51.460;6.148;2023-04-29T10:40:21;20.10;;;12.87;;
38425;SDS011;24210;51.460;6.148;2023-04-29T10:45:18;19.03;;;13.60;;
38425;SDS011;24210;51.460;6.148;2023-04-29T10:53:00;16.65;;;14.27;;
38425;SDS011;24210;51.460;6.148;2023-04-29T10:55:26;18.67;;;14.77;;
38425;SDS011;24210;51.460;6.148;2023-04-29T10:57:52;21.40;;;14.77;;
38425;SDS011;24210;51.460;6.148;2023-04-29T11:00:20;21.97;;;13.80;;
38425;SDS011;24210;51.460;6.148;2023-04-29T11:02:46;19.90;;;14.75;;
38425;SDS011;24210;51.460;6.148;2023-04-29T11:05:11;19.30;;;12.77;;
38425;SDS011;24210;51.460;6.148;2023-04-29T11:07:37;20.33;;;13.40;;
38425;SDS011;24210;51.460;6.148;2023-04-29T11:10:02;15.80;;;12.93;;
38425;SDS011;24210;51.460;6.148;2023-04-29T11:12:27;17.83;;;11.60;;
38425;SDS011;24210;51.460;6.148;2023-04-29T11:14:53;17.87;;;11.60;;
38425;SDS011;24210;51.460;6.148;2023-04-29T11:17:25;19.70;;;13.93;;
38425;SDS011;24210;51.460;6.148;2023-04-29T11:19:51;17.23;;;12.57;;
38425;SDS011;24210;51.460;6.148;2023-04-29T11:27:30;18.45;;;14.10;;
38425;SDS011;24210;51.460;6.148;2023-04-29T11:29:55;15.65;;;12.10;;
38425;SDS011;24210;51.460;6.148;2023-04-29T11:32:24;21.70;;;13.57;;
38425;SDS011;24210;51.460;6.148;2023-04-29T11:34:50;16.42;;;11.25;;
38425;SDS011;24210;51.460;6.148;2023-04-29T11:37:19;13.48;;;11.65;;
38425;SDS011;24210;51.460;6.148;2023-04-29T11:39:44;16.80;;;11.20;;
38425;SDS011;24210;51.460;6.148;2023-04-29T11:42:10;15.20;;;11.20;;
38425;SDS011;24210;51.460;6.148;2023-04-29T11:44:35;18.67;;;12.30;;
38425;SDS011;24210;51.460;6.148;2023-04-29T11:47:05;12.00;;;10.27;;
38425;SDS011;24210;51.460;6.148;2023-04-29T11:49:31;15.40;;;11.68;;
38425;SDS011;24210;51.460;6.148;2023-04-29T11:51:57;15.33;;;11.50;;
38425;SDS011;24210;51.460;6.148;2023-04-29T11:54:26;14.83;;;12.07;;
38425;SDS011;24210;51.460;6.148;2023-04-29T11:56:52;15.48;;;11.05;;
38425;SDS011;24210;51.460;6.148;2023-04-29T11:59:18;16.85;;;11.40;;
38425;SDS011;24210;51.460;6.148;2023-04-29T12:01:43;15.47;;;11.93;;
38425;SDS011;24210;51.460;6.148;2023-04-29T12:04:08;17.43;;;11.40;;
38425;SDS011;24210;51.460;6.148;2023-04-29T12:06:34;17.10;;;11.93;;
38425;SDS011;24210;51.460;6.148;2023-04-29T12:08:59;13.47;;;10.83;;
38425;SDS011;24210;51.460;6.148;2023-04-29T12:11:25;17.53;;;10.80;;
38425;SDS011;24210;51.460;6.148;2023-04-29T12:13:50;10.57;;;9.43;;
38425;SDS011;24210;51.460;6.148;2023-04-29T12:16:16;15.10;;;10.47;;
38425;SDS011;24210;51.460;6.148;2023-04-29T12:18:41;13.50;;;9.90;;
38425;SDS011;24210;51.460;6.148;2023-04-29T12:21:07;13.87;;;9.33;;
38425;SDS011;24210;51.460;6.148;2023-04-29T12:23:32;13.13;;;8.80;;
38425;SDS011;24210;51.460;6.148;2023-04-29T12:25:59;25.50;;;14.70;;
38425;SDS011;24210;51.460;6.148;2023-04-29T12:28:25;16.27;;;11.60;;
38425;SDS011;24210;51.460;6.148;2023-04-29T12:30:52;13.83;;;9.60;;
38425;SDS011;24210;51.460;6.148;2023-04-29T12:33:21;12.68;;;9.63;;
38425;SDS011;24210;51.460;6.148;2023-04-29T12:35:50;14.45;;;10.85;;
38425;SDS011;24210;51.460;6.148;2023-04-29T12:38:25;12.63;;;10.60;;
38425;SDS011;24210;51.460;6.148;2023-04-29T12:40:51;13.85;;;9.95;;
38425;SDS011;24210;51.460;6.148;2023-04-29T12:43:17;9.80;;;7.70;;
38425;SDS011;24210;51.460;6.148;2023-04-29T12:45:43;11.23;;;8.80;;
38425;SDS011;24210;51.460;6.148;2023-04-29T12:48:08;15.80;;;10.27;;
38425;SDS011;24210;51.460;6.148;2023-04-29T12:50:37;9.65;;;8.38;;
38425;SDS011;24210;51.460;6.148;2023-04-29T12:53:03;10.20;;;6.88;;
38425;SDS011;24210;51.460;6.148;2023-04-29T12:55:30;12.25;;;8.07;;
38425;SDS011;24210;51.460;6.148;2023-04-29T12:57:55;15.38;;;9.15;;
38425;SDS011;24210;51.460;6.148;2023-04-29T13:00:21;10.00;;;8.30;;
38425;SDS011;24210;51.460;6.148;2023-04-29T13:02:46;12.87;;;10.07;;
38425;SDS011;24210;51.460;6.148;2023-04-29T13:05:11;15.27;;;10.70;;
38425;SDS011;24210;51.460;6.148;2023-04-29T13:07:37;16.63;;;10.83;;
38425;SDS011;24210;51.460;6.148;2023-04-29T13:10:03;16.93;;;10.83;;
38425;SDS011;24210;51.460;6.148;2023-04-29T13:12:30;12.82;;;9.85;;
38425;SDS011;24210;51.460;6.148;2023-04-29T13:14:55;14.47;;;10.03;;
38425;SDS011;24210;51.460;6.148;2023-04-29T13:17:20;14.40;;;9.77;;
38425;SDS011;24210;51.460;6.148;2023-04-29T13:19:46;14.87;;;10.17;;
38425;SDS011;24210;51.460;6.148;2023-04-29T13:22:12;10.50;;;8.80;;
38425;SDS011;24210;51.460;6.148;2023-04-29T13:24:37;11.55;;;8.90;;
38425;SDS011;24210;51.460;6.148;2023-04-29T13:27:02;11.40;;;7.33;;
38425;SDS011;24210;51.460;6.148;2023-04-29T13:29:28;6.97;;;6.07;;
38425;SDS011;24210;51.460;6.148;2023-04-29T13:31:53;9.77;;;6.90;;
38425;SDS011;24210;51.460;6.148;2023-04-29T13:34:18;9.93;;;6.90;;
38425;SDS011;24210;51.460;6.148;2023-04-29T13:36:44;12.73;;;8.43;;
38425;SDS011;24210;51.460;6.148;2023-04-29T13:39:09;8.83;;;6.60;;
38425;SDS011;24210;51.460;6.148;2023-04-29T13:41:34;8.70;;;4.97;;
38425;SDS011;24210;51.460;6.148;2023-04-29T13:44:00;10.50;;;7.87;;
38425;SDS011;24210;51.460;6.148;2023-04-29T13:46:25;8.57;;;6.47;;
38425;SDS011;24210;51.460;6.148;2023-04-29T13:48:51;10.47;;;6.83;;
38425;SDS011;24210;51.460;6.148;2023-04-29T13:51:16;8.90;;;7.13;;
38425;SDS011;24210;51.460;6.148;2023-04-29T13:53:42;8.73;;;7.37;;
38425;SDS011;24210;51.460;6.148;2023-04-29T13:56:07;11.80;;;7.80;;
38425;SDS011;24210;51.460;6.148;2023-04-29T13:58:33;12.97;;;8.73;;
38425;SDS011;24210;51.460;6.148;2023-04-29T14:00:58;8.67;;;7.70;;
38425;SDS011;24210;51.460;6.148;2023-04-29T14:03:23;9.00;;;7.90;;
38425;SDS011;24210;51.460;6.148;2023-04-29T14:05:48;11.00;;;8.60;;
38425;SDS011;24210;51.460;6.148;2023-04-29T14:08:14;12.27;;;8.57;;
38425;SDS011;24210;51.460;6.148;2023-04-29T14:10:39;11.17;;;8.40;;
38425;SDS011;24210;51.460;6.148;2023-04-29T14:13:05;8.98;;;6.43;;
38425;SDS011;24210;51.460;6.148;2023-04-29T14:15:31;10.43;;;6.40;;
38425;SDS011;24210;51.460;6.148;2023-04-29T14:17:56;7.23;;;6.23;;
38425;SDS011;24210;51.460;6.148;2023-04-29T14:20:21;7.70;;;6.87;;
38425;SDS011;24210;51.460;6.148;2023-04-29T14:22:46;10.03;;;6.17;;
38425;SDS011;24210;51.460;6.148;2023-04-29T14:25:12;10.60;;;6.10;;
38425;SDS011;24210;51.460;6.148;2023-04-29T14:27:37;7.47;;;5.90;;
38425;SDS011;24210;51.460;6.148;2023-04-29T14:30:02;8.77;;;5.43;;
38425;SDS011;24210;51.460;6.148;2023-04-29T14:32:28;8.32;;;5.35;;
38425;SDS011;24210;51.460;6.148;2023-04-29T14:34:54;9.43;;;6.20;;
38425;SDS011;24210;51.460;6.148;2023-04-29T14:37:19;9.83;;;6.77;;